createdAt,value
2022-07-29T00:00:02.282Z,19.51
2022-07-29T00:02:29.183Z,19.38
2022-07-29T00:04:55.827Z,19.38
2022-07-29T00:07:22.352Z,19.41
2022-07-29T00:09:51.676Z,19.46
2022-07-29T00:12:25.164Z,19.51
2022-07-29T00:14:54.812Z,19.51
2022-07-29T00:17:21.555Z,19.36
2022-07-29T00:19:48.129Z,19.49
2022-07-29T00:22:14.813Z,19.47
2022-07-29T00:24:41.404Z,19.48
2022-07-29T00:27:07.920Z,19.56
2022-07-29T00:29:35.204Z,19.44
2022-07-29T00:32:03.090Z,19.54
2022-07-29T00:34:48.234Z,19.53
2022-07-29T00:37:14.797Z,19.44
2022-07-29T00:39:41.450Z,19.32
2022-07-29T00:42:08.890Z,19.38
2022-07-29T00:44:42.613Z,19.34
2022-07-29T00:47:11.453Z,19.26
2022-07-29T00:49:40.362Z,18.95
2022-07-29T00:52:08.789Z,19.31
2022-07-29T00:54:43.929Z,19.29
2022-07-29T00:57:13.052Z,18.91
2022-07-29T00:59:40.178Z,19.19
2022-07-29T01:02:06.797Z,19.25
2022-07-29T01:04:34.328Z,19.26
2022-07-29T01:07:05.406Z,19.14
2022-07-29T01:09:46.182Z,19.17
2022-07-29T01:12:17.639Z,19.13
2022-07-29T01:14:44.610Z,19.18
2022-07-29T01:17:32.618Z,19.02
2022-07-29T01:20:07.239Z,18.99
2022-07-29T01:22:44.043Z,18.97
2022-07-29T01:25:44.748Z,18.85
2022-07-29T01:28:40.923Z,18.80
2022-07-29T01:31:11.233Z,18.93
2022-07-29T01:33:58.698Z,18.88
2022-07-29T01:36:36.400Z,18.83
2022-07-29T01:39:15.035Z,18.68
2022-07-29T01:41:57.823Z,18.78
2022-07-29T01:44:36.739Z,18.76
2022-07-29T01:47:13.691Z,18.62
2022-07-29T01:49:47.051Z,18.71
2022-07-29T01:52:55.207Z,18.83
2022-07-29T01:55:25.599Z,18.77
2022-07-29T01:57:52.286Z,18.66
2022-07-29T02:00:20.112Z,18.51
2022-07-29T02:02:49.310Z,18.68
2022-07-29T02:05:19.668Z,18.61
2022-07-29T02:07:48.556Z,18.64
2022-07-29T02:10:17.908Z,18.62
2022-07-29T02:12:49.845Z,18.46
2022-07-29T02:15:18.123Z,18.41
2022-07-29T02:17:54.982Z,18.52
2022-07-29T02:20:24.184Z,18.21
2022-07-29T02:22:54.426Z,18.00
2022-07-29T02:25:23.358Z,18.33
2022-07-29T02:27:53.237Z,18.06
2022-07-29T02:30:22.721Z,18.25
2022-07-29T02:32:50.598Z,18.25
2022-07-29T02:35:18.111Z,18.34
2022-07-29T02:38:06.543Z,18.28
2022-07-29T02:40:37.318Z,18.26
2022-07-29T02:43:06.254Z,18.22
2022-07-29T02:45:33.826Z,18.12
2022-07-29T02:48:02.962Z,17.63
2022-07-29T02:50:35.746Z,17.90
2022-07-29T02:53:10.023Z,18.15
2022-07-29T02:55:47.463Z,18.27
2022-07-29T02:58:29.410Z,18.28
2022-07-29T03:01:03.251Z,18.05
2022-07-29T03:03:33.852Z,18.18
2022-07-29T03:06:02.687Z,18.29
2022-07-29T03:08:30.890Z,18.21
2022-07-29T03:11:00.476Z,18.11
2022-07-29T03:13:28.219Z,18.29
2022-07-29T03:15:55.152Z,18.27
2022-07-29T03:18:21.905Z,18.19
2022-07-29T03:20:48.501Z,18.22
2022-07-29T03:23:21.047Z,18.16
2022-07-29T03:25:47.913Z,18.05
2022-07-29T03:28:15.141Z,17.96
2022-07-29T03:30:44.529Z,18.16
2022-07-29T03:33:13.507Z,18.17
2022-07-29T03:35:40.897Z,18.03
2022-07-29T03:38:07.497Z,17.86
2022-07-29T03:40:50.815Z,17.84
2022-07-29T03:43:19.580Z,17.92
2022-07-29T03:45:50.521Z,18.06
2022-07-29T03:48:20.651Z,18.16
2022-07-29T03:50:47.773Z,17.82
2022-07-29T03:53:14.790Z,17.69
2022-07-29T03:55:44.300Z,17.96
2022-07-29T03:58:13.088Z,18.08
2022-07-29T04:00:41.087Z,18.05
2022-07-29T04:03:11.712Z,17.65
2022-07-29T04:05:38.699Z,18.13
2022-07-29T04:08:06.657Z,18.07
2022-07-29T04:10:34.141Z,18.18
2022-07-29T04:13:02.283Z,18.19
2022-07-29T04:15:31.325Z,18.16
2022-07-29T04:17:58.879Z,18.15
2022-07-29T04:20:25.415Z,18.24
2022-07-29T04:22:51.938Z,18.21
2022-07-29T04:25:18.535Z,18.29
2022-07-29T04:28:02.952Z,18.00
2022-07-29T04:30:30.797Z,17.40
2022-07-29T04:32:57.535Z,17.99
2022-07-29T04:35:24.139Z,17.67
2022-07-29T04:37:50.721Z,17.24
2022-07-29T04:40:17.293Z,17.77
2022-07-29T04:42:46.380Z,17.85
2022-07-29T04:45:14.309Z,17.74
2022-07-29T04:47:40.947Z,17.91
2022-07-29T04:50:08.919Z,17.86
2022-07-29T04:52:38.347Z,17.78
2022-07-29T04:55:06.277Z,17.87
2022-07-29T04:57:32.916Z,17.88
2022-07-29T04:59:59.522Z,17.97
2022-07-29T05:02:26.198Z,18.14
2022-07-29T05:04:52.889Z,18.26
2022-07-29T05:07:19.528Z,18.26
2022-07-29T05:09:46.045Z,18.21
2022-07-29T05:12:12.997Z,18.30
2022-07-29T05:14:39.690Z,18.43
2022-07-29T05:17:06.442Z,18.55
2022-07-29T05:19:33.020Z,18.50
2022-07-29T05:22:01.015Z,18.55
2022-07-29T05:24:27.694Z,18.54
2022-07-29T05:26:54.227Z,18.82
2022-07-29T05:29:43.083Z,18.77
2022-07-29T05:32:07.793Z,18.85
2022-07-29T05:34:34.435Z,18.89
2022-07-29T05:37:01.051Z,18.85
2022-07-29T05:39:47.300Z,18.91
2022-07-29T05:42:14.146Z,19.02
2022-07-29T05:44:41.019Z,19.07
2022-07-29T05:47:07.575Z,19.18
2022-07-29T05:49:34.386Z,19.20
2022-07-29T05:52:01.049Z,19.28
2022-07-29T05:54:27.647Z,19.45
2022-07-29T05:56:54.198Z,19.38
2022-07-29T05:59:20.740Z,19.38
2022-07-29T06:01:47.399Z,19.48
2022-07-29T06:04:14.553Z,19.50
2022-07-29T06:06:41.437Z,19.35
2022-07-29T06:09:12.630Z,19.35
2022-07-29T06:11:39.854Z,19.59
2022-07-29T06:14:06.389Z,19.68
2022-07-29T06:16:33.025Z,19.82
2022-07-29T06:18:59.740Z,19.64
2022-07-29T06:21:26.710Z,19.61
2022-07-29T06:23:53.335Z,19.79
2022-07-29T06:26:30.223Z,19.68
2022-07-29T06:28:58.162Z,19.74
2022-07-29T06:31:24.853Z,19.94
2022-07-29T06:33:51.547Z,20.02
2022-07-29T06:36:21.315Z,20.11
2022-07-29T06:38:51.235Z,20.24
2022-07-29T06:41:19.245Z,20.27
2022-07-29T06:43:51.891Z,20.34
2022-07-29T06:46:20.804Z,20.37
2022-07-29T06:48:51.426Z,20.46
2022-07-29T06:51:22.474Z,20.62
2022-07-29T06:53:59.850Z,20.74
2022-07-29T06:56:39.583Z,20.87
2022-07-29T06:59:08.331Z,20.88
2022-07-29T07:01:36.189Z,20.97
2022-07-29T07:04:03.157Z,21.01
2022-07-29T07:06:29.802Z,21.07
2022-07-29T07:08:56.539Z,21.10
2022-07-29T07:11:23.200Z,21.12
2022-07-29T07:13:49.757Z,21.22
2022-07-29T07:16:16.888Z,21.28
2022-07-29T07:18:43.593Z,21.45
2022-07-29T07:21:10.223Z,21.56
2022-07-29T07:23:36.764Z,21.72
2022-07-29T07:26:04.081Z,21.84
2022-07-29T07:28:30.693Z,21.94
2022-07-29T07:30:57.461Z,22.01
2022-07-29T07:33:24.121Z,22.08
2022-07-29T07:35:50.677Z,22.12
2022-07-29T07:38:17.207Z,22.18
2022-07-29T07:40:43.736Z,22.23
2022-07-29T07:43:10.305Z,22.16
2022-07-29T07:45:38.381Z,22.28
2022-07-29T07:48:05.759Z,22.34
2022-07-29T07:50:32.486Z,22.41
2022-07-29T07:52:59.151Z,22.49
2022-07-29T07:55:27.394Z,22.53
2022-07-29T07:57:57.046Z,22.57
2022-07-29T08:00:24.088Z,22.55
2022-07-29T08:02:51.128Z,22.56
2022-07-29T08:05:18.439Z,22.59
2022-07-29T08:07:47.219Z,22.62
2022-07-29T08:10:37.034Z,22.67
2022-07-29T08:13:08.479Z,22.66
2022-07-29T08:15:35.989Z,22.73
2022-07-29T08:18:08.475Z,22.81
2022-07-29T08:20:36.854Z,22.79
2022-07-29T08:23:04.187Z,22.87
2022-07-29T08:25:30.779Z,23.00
2022-07-29T08:27:57.548Z,23.04
2022-07-29T08:30:24.090Z,23.11
2022-07-29T08:32:55.182Z,23.20
2022-07-29T08:35:24.345Z,23.28
2022-07-29T08:37:51.605Z,23.36
2022-07-29T08:40:18.706Z,23.46
2022-07-29T08:42:46.365Z,23.51
2022-07-29T08:45:13.394Z,23.60
2022-07-29T08:47:40.914Z,23.67
2022-07-29T08:50:09.396Z,23.64
2022-07-29T08:52:41.531Z,23.67
2022-07-29T08:55:10.099Z,23.76
2022-07-29T08:57:37.116Z,23.71
2022-07-29T09:00:11.769Z,23.74
2022-07-29T09:02:46.916Z,23.83
2022-07-29T09:05:16.601Z,23.90
2022-07-29T09:07:44.341Z,23.98
2022-07-29T09:10:11.370Z,24.07
2022-07-29T09:12:38.417Z,24.21
2022-07-29T09:15:05.555Z,24.39
2022-07-29T09:17:46.915Z,24.47
2022-07-29T09:20:17.007Z,24.59
2022-07-29T09:22:43.650Z,24.69
2022-07-29T09:25:13.095Z,24.77
2022-07-29T09:27:40.047Z,24.76
2022-07-29T09:30:11.754Z,24.81
2022-07-29T09:32:59.520Z,24.83
2022-07-29T09:35:26.949Z,24.81
2022-07-29T09:37:53.592Z,24.71
2022-07-29T09:40:22.736Z,24.67
2022-07-29T09:42:49.659Z,24.72
2022-07-29T09:45:31.349Z,24.69
2022-07-29T09:48:01.490Z,24.67
2022-07-29T09:50:41.364Z,24.74
2022-07-29T09:53:10.316Z,24.72
2022-07-29T09:55:51.837Z,24.68
2022-07-29T09:58:20.621Z,24.71
2022-07-29T10:00:48.869Z,24.74
2022-07-29T10:03:16.735Z,24.79
2022-07-29T10:05:44.398Z,24.74
2022-07-29T10:08:13.313Z,24.84
2022-07-29T10:10:44.924Z,24.86
2022-07-29T10:13:16.110Z,24.90
2022-07-29T10:15:45.268Z,24.98
2022-07-29T10:18:13.490Z,25.01
2022-07-29T10:20:40.803Z,25.07
2022-07-29T10:23:07.444Z,25.09
2022-07-29T10:25:34.284Z,25.14
2022-07-29T10:28:00.818Z,25.09
2022-07-29T10:30:28.019Z,25.08
2022-07-29T10:32:57.832Z,25.15
2022-07-29T10:35:44.591Z,25.27
2022-07-29T10:38:45.662Z,25.43
2022-07-29T10:41:27.517Z,25.46
2022-07-29T10:44:03.233Z,25.53
2022-07-29T10:46:36.602Z,25.64
2022-07-29T10:49:10.216Z,25.94
2022-07-29T10:51:57.648Z,25.99
2022-07-29T10:54:36.635Z,25.94
2022-07-29T10:57:54.271Z,25.93
2022-07-29T11:00:16.704Z,26.06
2022-07-29T11:02:45.534Z,26.16
2022-07-29T11:05:20.544Z,26.21
2022-07-29T11:08:13.570Z,26.09
2022-07-29T11:10:46.553Z,26.13
2022-07-29T11:13:43.351Z,26.19
2022-07-29T11:16:09.951Z,26.06
2022-07-29T11:18:57.910Z,26.23
2022-07-29T11:21:54.030Z,26.33
2022-07-29T11:24:32.138Z,26.22
2022-07-29T11:27:13.269Z,26.29
2022-07-29T11:29:50.682Z,26.37
2022-07-29T11:32:23.251Z,26.37
2022-07-29T11:35:17.194Z,26.34
2022-07-29T11:38:08.363Z,26.35
2022-07-29T11:40:37.854Z,26.35
2022-07-29T11:43:07.331Z,26.29
2022-07-29T11:45:47.475Z,26.23
2022-07-29T11:48:27.854Z,26.28
2022-07-29T11:50:58.271Z,26.12
2022-07-29T11:53:25.654Z,26.25
2022-07-29T11:55:58.190Z,26.29
2022-07-29T11:58:26.254Z,26.28
2022-07-29T12:00:55.282Z,26.34
2022-07-29T12:03:35.420Z,26.33
2022-07-29T12:06:14.876Z,26.36
2022-07-29T12:08:44.201Z,26.32
2022-07-29T12:11:20.831Z,26.35
2022-07-29T12:13:49.219Z,26.42
2022-07-29T12:16:16.323Z,26.62
2022-07-29T12:19:03.994Z,26.82
2022-07-29T12:21:52.224Z,26.86
2022-07-29T12:24:23.254Z,26.75
2022-07-29T12:26:59.289Z,26.68
2022-07-29T12:29:35.100Z,26.64
2022-07-29T12:32:04.123Z,26.62
2022-07-29T12:34:31.351Z,26.75
2022-07-29T12:36:58.117Z,26.75
2022-07-29T12:39:27.429Z,26.67
2022-07-29T12:42:04.097Z,26.61
2022-07-29T12:44:52.238Z,26.61
2022-07-29T12:47:20.648Z,26.53
2022-07-29T12:49:47.925Z,26.50
2022-07-29T12:52:31.325Z,26.54
2022-07-29T12:54:58.407Z,26.59
2022-07-29T12:57:25.288Z,26.61
2022-07-29T13:00:09.032Z,26.62
2022-07-29T13:02:35.984Z,26.73
2022-07-29T13:05:06.404Z,26.79
2022-07-29T13:07:55.310Z,26.84
2022-07-29T13:10:24.633Z,27.23
2022-07-29T13:13:11.682Z,27.12
2022-07-29T13:15:40.063Z,27.13
2022-07-29T13:18:34.620Z,26.98
2022-07-29T13:21:14.797Z,26.91
2022-07-29T13:23:42.089Z,26.91
2022-07-29T13:26:10.937Z,27.08
2022-07-29T13:28:37.599Z,27.02
2022-07-29T13:31:04.425Z,27.46
2022-07-29T13:33:31.302Z,27.43
2022-07-29T13:35:57.842Z,27.37
2022-07-29T13:38:24.448Z,27.32
2022-07-29T13:40:57.887Z,27.31
2022-07-29T13:43:24.436Z,27.32
2022-07-29T13:45:51.051Z,27.27
2022-07-29T13:48:17.631Z,27.54
2022-07-29T13:50:44.320Z,27.69
2022-07-29T13:53:10.916Z,27.72
2022-07-29T13:55:45.054Z,27.61
2022-07-29T13:58:11.681Z,27.50
2022-07-29T14:00:38.228Z,27.35
2022-07-29T14:03:04.749Z,27.22
2022-07-29T14:05:31.327Z,27.13
2022-07-29T14:07:57.889Z,27.11
2022-07-29T14:10:24.441Z,27.13
2022-07-29T14:12:51.022Z,27.09
2022-07-29T14:15:18.299Z,27.03
2022-07-29T14:17:44.844Z,27.04
2022-07-29T14:20:11.601Z,27.00
2022-07-29T14:22:42.348Z,26.92
2022-07-29T14:25:14.544Z,26.93
2022-07-29T14:27:42.870Z,26.88
2022-07-29T14:30:10.068Z,26.93
2022-07-29T14:32:36.600Z,26.89
2022-07-29T14:35:03.566Z,26.78
2022-07-29T14:37:37.674Z,27.01
2022-07-29T14:40:08.013Z,27.21
2022-07-29T14:42:34.538Z,27.16
2022-07-29T14:45:01.143Z,27.04
2022-07-29T14:47:27.780Z,27.04
2022-07-29T14:49:54.329Z,26.91
2022-07-29T14:52:20.877Z,27.00
2022-07-29T14:54:47.461Z,26.99
2022-07-29T14:57:14.051Z,27.06
2022-07-29T14:59:40.586Z,27.37
2022-07-29T15:02:07.152Z,27.54
2022-07-29T15:04:33.817Z,27.63
2022-07-29T15:07:00.401Z,27.54
2022-07-29T15:09:26.999Z,27.39
2022-07-29T15:11:53.526Z,27.26
2022-07-29T15:14:20.082Z,27.13
2022-07-29T15:16:48.090Z,27.08
2022-07-29T15:19:14.948Z,26.94
2022-07-29T15:21:48.478Z,26.93
2022-07-29T15:24:26.152Z,26.79
2022-07-29T15:26:52.707Z,26.79
2022-07-29T15:29:20.032Z,26.81
2022-07-29T15:31:46.659Z,26.82
2022-07-29T15:34:13.365Z,26.92
2022-07-29T15:36:55.527Z,27.07
2022-07-29T15:39:23.144Z,27.02
2022-07-29T15:41:50.269Z,26.93
2022-07-29T15:44:16.984Z,26.84
2022-07-29T15:47:02.379Z,26.78
2022-07-29T15:49:47.081Z,26.60
2022-07-29T15:52:18.384Z,26.50
2022-07-29T15:54:45.429Z,26.43
2022-07-29T15:57:12.011Z,26.40
2022-07-29T15:59:38.690Z,26.38
2022-07-29T16:02:05.532Z,26.39
2022-07-29T16:04:32.143Z,26.31
2022-07-29T16:06:59.036Z,26.30
2022-07-29T16:09:26.535Z,26.23
2022-07-29T16:11:54.053Z,26.26
2022-07-29T16:14:21.043Z,26.22
2022-07-29T16:16:48.398Z,26.23
2022-07-29T16:19:15.086Z,26.28
2022-07-29T16:21:41.759Z,26.20
2022-07-29T16:24:08.599Z,26.19
2022-07-29T16:26:36.044Z,26.23
2022-07-29T16:29:03.392Z,26.29
2022-07-29T16:31:29.982Z,26.30
2022-07-29T16:33:56.615Z,26.20
2022-07-29T16:36:23.464Z,26.01
2022-07-29T16:38:50.250Z,26.05
2022-07-29T16:41:16.785Z,25.88
2022-07-29T16:43:43.372Z,25.76
2022-07-29T16:46:15.690Z,25.71
2022-07-29T16:48:45.850Z,25.77
2022-07-29T16:51:14.355Z,25.90
2022-07-29T16:53:41.780Z,25.85
2022-07-29T16:56:12.735Z,25.59
2022-07-29T16:58:43.513Z,25.47
2022-07-29T17:01:11.055Z,25.46
2022-07-29T17:04:00.258Z,25.37
2022-07-29T17:06:28.700Z,25.31
2022-07-29T17:08:56.355Z,25.37
2022-07-29T17:11:22.884Z,25.35
2022-07-29T17:14:10.207Z,25.25
2022-07-29T17:16:36.933Z,25.25
2022-07-29T17:19:03.861Z,25.30
2022-07-29T17:21:30.426Z,25.28
2022-07-29T17:23:58.871Z,25.30
2022-07-29T17:26:26.870Z,25.23
2022-07-29T17:28:55.667Z,25.03
2022-07-29T17:31:22.577Z,25.06
2022-07-29T17:33:49.151Z,25.08
2022-07-29T17:36:25.287Z,24.98
2022-07-29T17:38:53.691Z,24.83
2022-07-29T17:41:21.676Z,24.82
2022-07-29T17:43:49.608Z,24.81
2022-07-29T17:46:17.380Z,24.83
2022-07-29T17:48:44.918Z,24.83
2022-07-29T17:51:12.539Z,24.79
2022-07-29T17:53:39.196Z,24.73
2022-07-29T17:56:05.883Z,24.75
2022-07-29T17:58:32.577Z,24.69
2022-07-29T18:00:59.168Z,24.60
2022-07-29T18:03:25.972Z,24.43
2022-07-29T18:05:53.676Z,24.61
2022-07-29T18:08:20.339Z,24.42
2022-07-29T18:10:46.973Z,24.48
2022-07-29T18:13:13.915Z,24.33
2022-07-29T18:15:41.029Z,24.25
2022-07-29T18:18:07.641Z,24.27
2022-07-29T18:20:34.454Z,24.26
2022-07-29T18:23:01.619Z,24.23
2022-07-29T18:25:28.998Z,24.30
2022-07-29T18:28:00.158Z,24.27
2022-07-29T18:30:27.973Z,24.31
2022-07-29T18:33:19.680Z,24.27
2022-07-29T18:35:41.244Z,24.25
2022-07-29T18:38:07.811Z,24.33
2022-07-29T18:40:34.498Z,24.18
2022-07-29T18:43:01.451Z,24.29
2022-07-29T18:45:28.610Z,24.36
2022-07-29T18:47:56.250Z,24.29
2022-07-29T18:50:29.030Z,24.45
2022-07-29T18:52:58.534Z,24.35
2022-07-29T18:55:26.307Z,24.31
2022-07-29T18:57:56.537Z,24.44
2022-07-29T19:00:24.214Z,24.43
2022-07-29T19:02:50.966Z,24.46
2022-07-29T19:05:17.606Z,24.39
2022-07-29T19:07:44.133Z,24.32
2022-07-29T19:10:11.306Z,24.39
2022-07-29T19:12:37.925Z,24.38
2022-07-29T19:15:04.777Z,24.42
2022-07-29T19:17:31.439Z,24.45
2022-07-29T19:19:58.168Z,24.40
2022-07-29T19:22:24.932Z,24.34
2022-07-29T19:24:51.579Z,24.20
2022-07-29T19:27:18.258Z,24.31
2022-07-29T19:29:44.800Z,24.24
2022-07-29T19:32:12.132Z,24.29
2022-07-29T19:34:38.657Z,24.31
2022-07-29T19:37:05.369Z,24.27
2022-07-29T19:39:35.252Z,24.27
2022-07-29T19:42:03.460Z,24.23
2022-07-29T19:44:30.356Z,24.17
2022-07-29T19:46:59.550Z,24.20
2022-07-29T19:49:26.340Z,24.01
2022-07-29T19:51:53.319Z,24.06
2022-07-29T19:54:20.798Z,23.95
2022-07-29T19:56:47.360Z,23.78
2022-07-29T19:59:14.612Z,23.86
2022-07-29T20:01:41.370Z,23.93
2022-07-29T20:04:08.029Z,23.78
2022-07-29T20:06:34.864Z,23.80
2022-07-29T20:09:01.499Z,23.70
2022-07-29T20:11:29.741Z,23.58
2022-07-29T20:13:56.391Z,23.76
2022-07-29T20:16:23.030Z,23.89
2022-07-29T20:18:52.007Z,23.74
2022-07-29T20:21:18.554Z,23.76
2022-07-29T20:23:45.939Z,23.76
2022-07-29T20:26:12.761Z,23.87
2022-07-29T20:28:40.393Z,23.77
2022-07-29T20:31:07.214Z,23.71
2022-07-29T20:33:33.802Z,23.52
2022-07-29T20:36:01.830Z,23.54
2022-07-29T20:38:30.608Z,23.56
2022-07-29T20:40:58.822Z,23.52
2022-07-29T20:43:27.067Z,23.63
2022-07-29T20:45:53.695Z,23.70
2022-07-29T20:48:20.284Z,23.70
2022-07-29T20:50:48.734Z,23.71
2022-07-29T20:53:16.839Z,23.66
2022-07-29T20:55:43.562Z,23.65
2022-07-29T20:58:10.249Z,23.53
2022-07-29T21:00:37.419Z,23.61
2022-07-29T21:03:04.336Z,23.44
2022-07-29T21:05:31.450Z,23.32
2022-07-29T21:07:58.376Z,23.44
2022-07-29T21:10:25.733Z,23.36
2022-07-29T21:12:52.292Z,23.50
2022-07-29T21:15:20.843Z,23.52
2022-07-29T21:17:48.211Z,23.37
2022-07-29T21:20:16.570Z,23.35
2022-07-29T21:22:45.206Z,23.22
2022-07-29T21:25:12.096Z,23.16
2022-07-29T21:27:57.102Z,22.94
2022-07-29T21:30:23.624Z,22.92
2022-07-29T21:32:50.398Z,22.92
2022-07-29T21:35:35.904Z,22.86
2022-07-29T21:38:04.119Z,22.78
2022-07-29T21:40:30.854Z,22.77
2022-07-29T21:42:57.535Z,22.82
2022-07-29T21:45:24.118Z,22.53
2022-07-29T21:47:50.679Z,22.55
2022-07-29T21:50:17.259Z,22.68
2022-07-29T21:52:43.849Z,22.74
2022-07-29T21:55:11.615Z,22.73
2022-07-29T21:57:38.322Z,22.72
2022-07-29T22:00:08.303Z,22.51
2022-07-29T22:02:34.841Z,22.38
2022-07-29T22:05:01.480Z,22.06
2022-07-29T22:07:55.855Z,22.44
2022-07-29T22:10:15.815Z,22.61
2022-07-29T22:12:42.347Z,22.58
2022-07-29T22:15:09.343Z,22.24
2022-07-29T22:17:37.417Z,22.17
2022-07-29T22:20:05.239Z,22.11
2022-07-29T22:22:31.842Z,22.05
2022-07-29T22:24:58.402Z,22.10
2022-07-29T22:27:24.959Z,21.96
2022-07-29T22:29:51.899Z,22.15
2022-07-29T22:32:18.609Z,22.28
2022-07-29T22:34:45.155Z,22.07
2022-07-29T22:37:11.698Z,21.84
2022-07-29T22:39:38.352Z,21.85
2022-07-29T22:42:05.051Z,22.03
2022-07-29T22:44:31.678Z,21.86
2022-07-29T22:46:58.496Z,22.00
2022-07-29T22:49:25.259Z,22.04
2022-07-29T22:51:51.930Z,21.85
2022-07-29T22:54:18.513Z,21.55
2022-07-29T22:56:45.047Z,21.49
2022-07-29T22:59:11.551Z,21.44
2022-07-29T23:01:38.333Z,21.31
2022-07-29T23:04:05.957Z,21.32
2022-07-29T23:06:32.640Z,21.18
2022-07-29T23:08:59.329Z,21.23
2022-07-29T23:11:25.892Z,21.41
2022-07-29T23:13:52.444Z,21.55
2022-07-29T23:16:26.756Z,21.46
2022-07-29T23:18:54.362Z,21.70
2022-07-29T23:21:20.993Z,21.74
2022-07-29T23:23:48.523Z,21.47
2022-07-29T23:26:16.884Z,21.47
2022-07-29T23:28:44.900Z,21.58
2022-07-29T23:31:11.825Z,21.39
2022-07-29T23:33:38.409Z,21.31
2022-07-29T23:36:05.072Z,21.44
2022-07-29T23:38:31.613Z,21.24
2022-07-29T23:41:01.414Z,21.26
2022-07-29T23:43:28.882Z,21.16
2022-07-29T23:45:56.382Z,21.17
2022-07-29T23:48:24.850Z,21.25
2022-07-29T23:50:51.752Z,21.19
2022-07-29T23:53:18.377Z,21.21
2022-07-29T23:55:45.081Z,21.31
2022-07-29T23:58:11.652Z,21.23
